sensor_id;sensor_type;location;lat;lon;timestamp;P1;durP1;ratioP1;P2;durP2;ratioP2
9160;SDS011;4615;51.340;8.288;2023-10-19T00:01:54;7.57;;;6.80;;
9160;SDS011;4615;51.340;8.288;2023-10-19T00:04:20;7.60;;;6.80;;
9160;SDS011;4615;51.340;8.288;2023-10-19T00:06:48;7.20;;;6.50;;
9160;SDS011;4615;51.340;8.288;2023-10-19T00:09:15;7.32;;;6.63;;
9160;SDS011;4615;51.340;8.288;2023-10-19T00:11:40;7.80;;;7.10;;
9160;SDS011;4615;51.340;8.288;2023-10-19T00:14:07;7.47;;;6.78;;
9160;SDS011;4615;51.340;8.288;2023-10-19T00:16:41;7.80;;;7.10;;
9160;SDS011;4615;51.340;8.288;2023-10-19T00:19:09;7.78;;;7.07;;
9160;SDS011;4615;51.340;8.288;2023-10-19T00:21:35;8.20;;;7.40;;
9160;SDS011;4615;51.340;8.288;2023-10-19T00:24:16;9.27;;;8.38;;
9160;SDS011;4615;51.340;8.288;2023-10-19T00:26:42;9.00;;;8.20;;
9160;SDS011;4615;51.340;8.288;2023-10-19T00:29:09;8.75;;;7.88;;
9160;SDS011;4615;51.340;8.288;2023-10-19T00:31:55;8.63;;;7.80;;
9160;SDS011;4615;51.340;8.288;2023-10-19T00:34:21;9.27;;;8.37;;
9160;SDS011;4615;51.340;8.288;2023-10-19T00:36:48;8.70;;;7.90;;
9160;SDS011;4615;51.340;8.288;2023-10-19T00:39:17;8.77;;;7.97;;
9160;SDS011;4615;51.340;8.288;2023-10-19T00:41:46;8.52;;;7.72;;
9160;SDS011;4615;51.340;8.288;2023-10-19T00:44:13;9.23;;;8.35;;
9160;SDS011;4615;51.340;8.288;2023-10-19T00:46:47;8.85;;;7.95;;
9160;SDS011;4615;51.340;8.288;2023-10-19T00:49:17;8.27;;;7.47;;
9160;SDS011;4615;51.340;8.288;2023-10-19T00:51:49;7.33;;;6.60;;
9160;SDS011;4615;51.340;8.288;2023-10-19T00:54:22;6.20;;;5.70;;
9160;SDS011;4615;51.340;8.288;2023-10-19T00:56:56;5.43;;;4.93;;
9160;SDS011;4615;51.340;8.288;2023-10-19T00:59:28;5.93;;;5.43;;
9160;SDS011;4615;51.340;8.288;2023-10-19T01:02:00;4.07;;;3.75;;
9160;SDS011;4615;51.340;8.288;2023-10-19T01:04:41;3.10;;;2.80;;
9160;SDS011;4615;51.340;8.288;2023-10-19T01:07:09;3.70;;;2.63;;
9160;SDS011;4615;51.340;8.288;2023-10-19T01:09:43;2.40;;;2.20;;
9160;SDS011;4615;51.340;8.288;2023-10-19T01:12:10;2.30;;;1.80;;
9160;SDS011;4615;51.340;8.288;2023-10-19T01:15:03;1.70;;;1.60;;
9160;SDS011;4615;51.340;8.288;2023-10-19T01:17:31;1.60;;;1.50;;
9160;SDS011;4615;51.340;8.288;2023-10-19T01:19:59;1.60;;;1.50;;
9160;SDS011;4615;51.340;8.288;2023-10-19T01:22:26;2.47;;;1.60;;
9160;SDS011;4615;51.340;8.288;2023-10-19T01:24:54;1.80;;;1.70;;
9160;SDS011;4615;51.340;8.288;2023-10-19T01:27:20;1.60;;;1.50;;
9160;SDS011;4615;51.340;8.288;2023-10-19T01:29:47;1.90;;;1.80;;
9160;SDS011;4615;51.340;8.288;2023-10-19T01:32:17;1.77;;;1.60;;
9160;SDS011;4615;51.340;8.288;2023-10-19T01:34:43;1.52;;;1.42;;
9160;SDS011;4615;51.340;8.288;2023-10-19T01:37:09;1.80;;;1.70;;
9160;SDS011;4615;51.340;8.288;2023-10-19T01:39:37;1.90;;;1.80;;
9160;SDS011;4615;51.340;8.288;2023-10-19T01:42:05;1.80;;;1.70;;
9160;SDS011;4615;51.340;8.288;2023-10-19T01:44:33;2.00;;;1.90;;
9160;SDS011;4615;51.340;8.288;2023-10-19T01:47:01;2.10;;;2.00;;
9160;SDS011;4615;51.340;8.288;2023-10-19T01:49:27;2.40;;;2.20;;
9160;SDS011;4615;51.340;8.288;2023-10-19T01:51:54;2.70;;;2.50;;
9160;SDS011;4615;51.340;8.288;2023-10-19T01:54:20;2.70;;;2.50;;
9160;SDS011;4615;51.340;8.288;2023-10-19T01:56:50;2.80;;;2.60;;
9160;SDS011;4615;51.340;8.288;2023-10-19T01:59:17;3.30;;;3.00;;
9160;SDS011;4615;51.340;8.288;2023-10-19T02:01:44;3.25;;;2.95;;
9160;SDS011;4615;51.340;8.288;2023-10-19T02:04:10;3.97;;;3.55;;
9160;SDS011;4615;51.340;8.288;2023-10-19T02:06:38;3.40;;;3.10;;
9160;SDS011;4615;51.340;8.288;2023-10-19T02:09:06;3.80;;;3.40;;
9160;SDS011;4615;51.340;8.288;2023-10-19T02:11:39;3.72;;;3.42;;
9160;SDS011;4615;51.340;8.288;2023-10-19T02:14:07;3.42;;;3.05;;
9160;SDS011;4615;51.340;8.288;2023-10-19T02:16:40;3.55;;;3.25;;
9160;SDS011;4615;51.340;8.288;2023-10-19T02:19:08;3.08;;;2.80;;
9160;SDS011;4615;51.340;8.288;2023-10-19T02:21:33;3.50;;;3.20;;
9160;SDS011;4615;51.340;8.288;2023-10-19T02:24:04;3.40;;;3.10;;
9160;SDS011;4615;51.340;8.288;2023-10-19T02:26:32;3.35;;;3.05;;
9160;SDS011;4615;51.340;8.288;2023-10-19T02:28:58;3.60;;;3.30;;
9160;SDS011;4615;51.340;8.288;2023-10-19T02:31:25;3.22;;;3.00;;
9160;SDS011;4615;51.340;8.288;2023-10-19T02:33:52;3.50;;;3.20;;
9160;SDS011;4615;51.340;8.288;2023-10-19T02:36:24;3.50;;;3.20;;
9160;SDS011;4615;51.340;8.288;2023-10-19T02:38:53;3.00;;;2.80;;
9160;SDS011;4615;51.340;8.288;2023-10-19T02:41:19;3.27;;;3.00;;
9160;SDS011;4615;51.340;8.288;2023-10-19T02:43:45;3.30;;;3.00;;
9160;SDS011;4615;51.340;8.288;2023-10-19T02:46:16;3.40;;;3.10;;
9160;SDS011;4615;51.340;8.288;2023-10-19T02:48:43;3.20;;;3.00;;
9160;SDS011;4615;51.340;8.288;2023-10-19T02:51:11;3.30;;;3.00;;
9160;SDS011;4615;51.340;8.288;2023-10-19T02:53:37;3.60;;;3.30;;
9160;SDS011;4615;51.340;8.288;2023-10-19T02:56:10;3.55;;;3.25;;
9160;SDS011;4615;51.340;8.288;2023-10-19T02:58:37;3.47;;;3.25;;
9160;SDS011;4615;51.340;8.288;2023-10-19T03:01:08;3.60;;;3.30;;
9160;SDS011;4615;51.340;8.288;2023-10-19T03:03:37;4.00;;;3.60;;
9160;SDS011;4615;51.340;8.288;2023-10-19T03:06:03;3.75;;;3.45;;
9160;SDS011;4615;51.340;8.288;2023-10-19T03:08:32;3.75;;;3.45;;
9160;SDS011;4615;51.340;8.288;2023-10-19T03:10:58;3.83;;;3.53;;
9160;SDS011;4615;51.340;8.288;2023-10-19T03:13:29;4.07;;;3.78;;
9160;SDS011;4615;51.340;8.288;2023-10-19T03:15:57;4.50;;;4.10;;
9160;SDS011;4615;51.340;8.288;2023-10-19T03:18:24;4.60;;;4.20;;
9160;SDS011;4615;51.340;8.288;2023-10-19T03:20:50;4.75;;;4.35;;
9160;SDS011;4615;51.340;8.288;2023-10-19T03:23:17;5.30;;;4.80;;
9160;SDS011;4615;51.340;8.288;2023-10-19T03:25:44;5.40;;;4.90;;
9160;SDS011;4615;51.340;8.288;2023-10-19T03:28:31;5.47;;;4.97;;
9160;SDS011;4615;51.340;8.288;2023-10-19T03:31:00;5.60;;;5.10;;
9160;SDS011;4615;51.340;8.288;2023-10-19T03:33:28;5.60;;;5.10;;
9160;SDS011;4615;51.340;8.288;2023-10-19T03:35:54;6.07;;;5.25;;
9160;SDS011;4615;51.340;8.288;2023-10-19T03:38:20;5.43;;;4.93;;
9160;SDS011;4615;51.340;8.288;2023-10-19T03:40:49;6.60;;;5.60;;
9160;SDS011;4615;51.340;8.288;2023-10-19T03:43:24;5.57;;;5.10;;
9160;SDS011;4615;51.340;8.288;2023-10-19T03:45:52;5.97;;;5.37;;
9160;SDS011;4615;51.340;8.288;2023-10-19T03:48:20;6.00;;;5.50;;
9160;SDS011;4615;51.340;8.288;2023-10-19T03:50:51;6.28;;;5.68;;
9160;SDS011;4615;51.340;8.288;2023-10-19T03:53:19;6.87;;;6.07;;
9160;SDS011;4615;51.340;8.288;2023-10-19T03:55:46;6.32;;;5.72;;
9160;SDS011;4615;51.340;8.288;2023-10-19T03:58:14;6.10;;;5.50;;
9160;SDS011;4615;51.340;8.288;2023-10-19T04:00:40;6.20;;;5.60;;
9160;SDS011;4615;51.340;8.288;2023-10-19T04:03:07;5.97;;;5.20;;
9160;SDS011;4615;51.340;8.288;2023-10-19T04:05:33;6.30;;;5.70;;
9160;SDS011;4615;51.340;8.288;2023-10-19T04:08:03;6.50;;;5.80;;
9160;SDS011;4615;51.340;8.288;2023-10-19T04:10:38;6.20;;;5.60;;
9160;SDS011;4615;51.340;8.288;2023-10-19T04:13:09;6.30;;;5.70;;
9160;SDS011;4615;51.340;8.288;2023-10-19T04:15:37;6.60;;;5.93;;
9160;SDS011;4615;51.340;8.288;2023-10-19T04:18:04;6.53;;;5.88;;
9160;SDS011;4615;51.340;8.288;2023-10-19T04:20:35;6.45;;;5.85;;
9160;SDS011;4615;51.340;8.288;2023-10-19T04:23:07;6.70;;;6.10;;
9160;SDS011;4615;51.340;8.288;2023-10-19T04:25:35;6.50;;;5.90;;
9160;SDS011;4615;51.340;8.288;2023-10-19T04:28:02;6.40;;;5.55;;
9160;SDS011;4615;51.340;8.288;2023-10-19T04:30:30;7.13;;;6.32;;
9160;SDS011;4615;51.340;8.288;2023-10-19T04:32:59;6.53;;;5.93;;
9160;SDS011;4615;51.340;8.288;2023-10-19T04:35:26;7.05;;;6.15;;
9160;SDS011;4615;51.340;8.288;2023-10-19T04:37:55;7.30;;;6.32;;
9160;SDS011;4615;51.340;8.288;2023-10-19T04:40:22;7.20;;;6.50;;
9160;SDS011;4615;51.340;8.288;2023-10-19T04:42:49;7.83;;;7.03;;
9160;SDS011;4615;51.340;8.288;2023-10-19T04:45:16;6.72;;;6.03;;
9160;SDS011;4615;51.340;8.288;2023-10-19T04:47:43;7.32;;;6.60;;
9160;SDS011;4615;51.340;8.288;2023-10-19T04:50:10;8.10;;;7.20;;
9160;SDS011;4615;51.340;8.288;2023-10-19T04:52:37;7.75;;;6.55;;
9160;SDS011;4615;51.340;8.288;2023-10-19T04:55:03;7.45;;;6.75;;
9160;SDS011;4615;51.340;8.288;2023-10-19T04:57:30;8.50;;;6.75;;
9160;SDS011;4615;51.340;8.288;2023-10-19T04:59:56;7.32;;;6.55;;
9160;SDS011;4615;51.340;8.288;2023-10-19T05:02:23;7.80;;;6.82;;
9160;SDS011;4615;51.340;8.288;2023-10-19T05:04:49;6.68;;;6.05;;
9160;SDS011;4615;51.340;8.288;2023-10-19T05:07:17;8.15;;;6.55;;
9160;SDS011;4615;51.340;8.288;2023-10-19T05:09:44;7.57;;;6.40;;
9160;SDS011;4615;51.340;8.288;2023-10-19T05:12:13;7.17;;;6.47;;
9160;SDS011;4615;51.340;8.288;2023-10-19T05:14:40;6.80;;;6.10;;
9160;SDS011;4615;51.340;8.288;2023-10-19T05:17:07;7.13;;;6.43;;
9160;SDS011;4615;51.340;8.288;2023-10-19T05:19:34;6.53;;;5.93;;
9160;SDS011;4615;51.340;8.288;2023-10-19T05:22:01;6.93;;;6.22;;
9160;SDS011;4615;51.340;8.288;2023-10-19T05:24:29;6.22;;;5.70;;
9160;SDS011;4615;51.340;8.288;2023-10-19T05:26:55;7.38;;;6.13;;
9160;SDS011;4615;51.340;8.288;2023-10-19T05:29:21;7.28;;;6.22;;
9160;SDS011;4615;51.340;8.288;2023-10-19T05:31:49;7.68;;;5.68;;
9160;SDS011;4615;51.340;8.288;2023-10-19T05:34:18;6.55;;;5.95;;
9160;SDS011;4615;51.340;8.288;2023-10-19T05:36:45;6.17;;;5.57;;
9160;SDS011;4615;51.340;8.288;2023-10-19T05:39:13;6.40;;;5.67;;
9160;SDS011;4615;51.340;8.288;2023-10-19T05:41:41;7.32;;;5.80;;
9160;SDS011;4615;51.340;8.288;2023-10-19T05:44:08;6.63;;;6.03;;
9160;SDS011;4615;51.340;8.288;2023-10-19T05:46:34;6.03;;;5.43;;
9160;SDS011;4615;51.340;8.288;2023-10-19T05:49:01;6.45;;;5.90;;
9160;SDS011;4615;51.340;8.288;2023-10-19T05:51:29;6.75;;;5.97;;
9160;SDS011;4615;51.340;8.288;2023-10-19T05:53:55;6.53;;;5.65;;
9160;SDS011;4615;51.340;8.288;2023-10-19T05:56:26;6.55;;;5.90;;
9160;SDS011;4615;51.340;8.288;2023-10-19T05:58:54;7.05;;;6.13;;
9160;SDS011;4615;51.340;8.288;2023-10-19T06:01:21;6.72;;;5.70;;
9160;SDS011;4615;51.340;8.288;2023-10-19T06:03:48;6.20;;;5.60;;
9160;SDS011;4615;51.340;8.288;2023-10-19T06:06:15;7.45;;;6.20;;
9160;SDS011;4615;51.340;8.288;2023-10-19T06:08:42;7.03;;;6.22;;
9160;SDS011;4615;51.340;8.288;2023-10-19T06:11:08;6.77;;;6.10;;
9160;SDS011;4615;51.340;8.288;2023-10-19T06:13:34;7.40;;;6.50;;
9160;SDS011;4615;51.340;8.288;2023-10-19T06:16:02;7.23;;;5.97;;
9160;SDS011;4615;51.340;8.288;2023-10-19T06:18:29;6.87;;;6.00;;
9160;SDS011;4615;51.340;8.288;2023-10-19T06:20:55;6.57;;;5.95;;
9160;SDS011;4615;51.340;8.288;2023-10-19T06:23:21;6.40;;;5.72;;
9160;SDS011;4615;51.340;8.288;2023-10-19T06:25:48;6.85;;;5.50;;
9160;SDS011;4615;51.340;8.288;2023-10-19T06:28:16;6.40;;;5.60;;
9160;SDS011;4615;51.340;8.288;2023-10-19T06:30:42;6.10;;;5.50;;
9160;SDS011;4615;51.340;8.288;2023-10-19T06:33:11;6.13;;;5.53;;
9160;SDS011;4615;51.340;8.288;2023-10-19T06:35:37;5.70;;;5.05;;
9160;SDS011;4615;51.340;8.288;2023-10-19T06:38:05;6.30;;;5.30;;
9160;SDS011;4615;51.340;8.288;2023-10-19T06:40:34;5.65;;;5.00;;
9160;SDS011;4615;51.340;8.288;2023-10-19T06:43:02;5.82;;;5.22;;
9160;SDS011;4615;51.340;8.288;2023-10-19T06:45:29;5.70;;;4.90;;
9160;SDS011;4615;51.340;8.288;2023-10-19T06:47:56;5.55;;;4.63;;
9160;SDS011;4615;51.340;8.288;2023-10-19T06:50:24;5.55;;;5.05;;
9160;SDS011;4615;51.340;8.288;2023-10-19T06:52:50;5.15;;;4.57;;
9160;SDS011;4615;51.340;8.288;2023-10-19T06:55:17;5.75;;;4.75;;
9160;SDS011;4615;51.340;8.288;2023-10-19T06:57:46;5.17;;;4.67;;
9160;SDS011;4615;51.340;8.288;2023-10-19T07:00:13;5.20;;;4.70;;
9160;SDS011;4615;51.340;8.288;2023-10-19T07:02:41;5.53;;;5.03;;
9160;SDS011;4615;51.340;8.288;2023-10-19T07:05:08;5.13;;;4.63;;
9160;SDS011;4615;51.340;8.288;2023-10-19T07:07:38;4.87;;;4.37;;
9160;SDS011;4615;51.340;8.288;2023-10-19T07:10:05;5.68;;;4.60;;
9160;SDS011;4615;51.340;8.288;2023-10-19T07:12:32;4.88;;;4.10;;
9160;SDS011;4615;51.340;8.288;2023-10-19T07:14:58;5.18;;;4.18;;
9160;SDS011;4615;51.340;8.288;2023-10-19T07:17:26;5.15;;;4.55;;
9160;SDS011;4615;51.340;8.288;2023-10-19T07:19:52;5.68;;;4.20;;
9160;SDS011;4615;51.340;8.288;2023-10-19T07:22:18;5.00;;;4.25;;
9160;SDS011;4615;51.340;8.288;2023-10-19T07:24:49;4.43;;;4.03;;
9160;SDS011;4615;51.340;8.288;2023-10-19T07:27:16;6.07;;;4.32;;
9160;SDS011;4615;51.340;8.288;2023-10-19T07:29:44;5.40;;;4.85;;
9160;SDS011;4615;51.340;8.288;2023-10-19T07:32:10;5.35;;;4.85;;
9160;SDS011;4615;51.340;8.288;2023-10-19T07:34:38;4.15;;;3.65;;
9160;SDS011;4615;51.340;8.288;2023-10-19T07:37:04;3.75;;;3.40;;
9160;SDS011;4615;51.340;8.288;2023-10-19T07:39:32;3.90;;;3.53;;
9160;SDS011;4615;51.340;8.288;2023-10-19T07:42:01;3.40;;;3.10;;
9160;SDS011;4615;51.340;8.288;2023-10-19T07:44:31;3.90;;;3.28;;
9160;SDS011;4615;51.340;8.288;2023-10-19T07:46:58;3.50;;;3.20;;
9160;SDS011;4615;51.340;8.288;2023-10-19T07:49:24;3.30;;;3.00;;
9160;SDS011;4615;51.340;8.288;2023-10-19T07:51:50;4.85;;;3.30;;
9160;SDS011;4615;51.340;8.288;2023-10-19T07:54:17;4.68;;;3.30;;
9160;SDS011;4615;51.340;8.288;2023-10-19T07:56:43;3.88;;;3.08;;
9160;SDS011;4615;51.340;8.288;2023-10-19T07:59:12;4.13;;;3.10;;
9160;SDS011;4615;51.340;8.288;2023-10-19T08:01:39;4.22;;;2.95;;
9160;SDS011;4615;51.340;8.288;2023-10-19T08:04:05;4.40;;;3.20;;
9160;SDS011;4615;51.340;8.288;2023-10-19T08:06:31;3.53;;;3.00;;
9160;SDS011;4615;51.340;8.288;2023-10-19T08:08:58;3.33;;;3.03;;
9160;SDS011;4615;51.340;8.288;2023-10-19T08:11:24;3.43;;;3.13;;
9160;SDS011;4615;51.340;8.288;2023-10-19T08:13:51;3.78;;;3.10;;
9160;SDS011;4615;51.340;8.288;2023-10-19T08:16:19;3.70;;;3.03;;
9160;SDS011;4615;51.340;8.288;2023-10-19T08:18:45;4.25;;;3.20;;
9160;SDS011;4615;51.340;8.288;2023-10-19T08:21:12;3.63;;;3.20;;
9160;SDS011;4615;51.340;8.288;2023-10-19T08:23:38;4.13;;;3.20;;
9160;SDS011;4615;51.340;8.288;2023-10-19T08:26:05;4.80;;;3.38;;
9160;SDS011;4615;51.340;8.288;2023-10-19T08:28:31;4.20;;;3.30;;
9160;SDS011;4615;51.340;8.288;2023-10-19T08:30:58;3.72;;;3.42;;
9160;SDS011;4615;51.340;8.288;2023-10-19T08:33:27;4.15;;;3.20;;
9160;SDS011;4615;51.340;8.288;2023-10-19T08:35:55;4.15;;;3.47;;
9160;SDS011;4615;51.340;8.288;2023-10-19T08:38:21;3.80;;;3.35;;
9160;SDS011;4615;51.340;8.288;2023-10-19T08:40:48;4.03;;;3.15;;
9160;SDS011;4615;51.340;8.288;2023-10-19T08:43:15;5.40;;;3.65;;
9160;SDS011;4615;51.340;8.288;2023-10-19T08:45:43;3.70;;;3.30;;
9160;SDS011;4615;51.340;8.288;2023-10-19T08:48:10;4.43;;;3.60;;
9160;SDS011;4615;51.340;8.288;2023-10-19T08:50:38;4.00;;;3.60;;
9160;SDS011;4615;51.340;8.288;2023-10-19T08:53:05;4.40;;;3.70;;
9160;SDS011;4615;51.340;8.288;2023-10-19T08:55:33;3.90;;;3.53;;
9160;SDS011;4615;51.340;8.288;2023-10-19T08:58:00;3.60;;;3.30;;
9160;SDS011;4615;51.340;8.288;2023-10-19T09:00:38;4.20;;;3.30;;
9160;SDS011;4615;51.340;8.288;2023-10-19T09:03:09;4.50;;;3.55;;
9160;SDS011;4615;51.340;8.288;2023-10-19T09:05:40;3.83;;;3.20;;
9160;SDS011;4615;51.340;8.288;2023-10-19T09:08:06;4.80;;;3.60;;
9160;SDS011;4615;51.340;8.288;2023-10-19T09:10:34;4.97;;;3.65;;
9160;SDS011;4615;51.340;8.288;2023-10-19T09:13:02;4.30;;;3.40;;
9160;SDS011;4615;51.340;8.288;2023-10-19T09:15:28;3.30;;;3.00;;
9160;SDS011;4615;51.340;8.288;2023-10-19T09:17:57;4.43;;;3.20;;
9160;SDS011;4615;51.340;8.288;2023-10-19T09:20:24;4.40;;;3.10;;
9160;SDS011;4615;51.340;8.288;2023-10-19T09:22:54;4.38;;;3.30;;
9160;SDS011;4615;51.340;8.288;2023-10-19T09:25:23;3.67;;;3.00;;
9160;SDS011;4615;51.340;8.288;2023-10-19T09:27:49;3.88;;;2.80;;
9160;SDS011;4615;51.340;8.288;2023-10-19T09:30:16;2.80;;;2.60;;
9160;SDS011;4615;51.340;8.288;2023-10-19T09:32:45;3.30;;;2.30;;
9160;SDS011;4615;51.340;8.288;2023-10-19T09:35:11;3.72;;;2.50;;
9160;SDS011;4615;51.340;8.288;2023-10-19T09:37:40;3.55;;;2.55;;
9160;SDS011;4615;51.340;8.288;2023-10-19T09:40:09;5.22;;;2.80;;
9160;SDS011;4615;51.340;8.288;2023-10-19T09:42:37;4.68;;;2.58;;
9160;SDS011;4615;51.340;8.288;2023-10-19T09:45:11;4.13;;;2.67;;
9160;SDS011;4615;51.340;8.288;2023-10-19T09:47:38;5.88;;;2.72;;
9160;SDS011;4615;51.340;8.288;2023-10-19T09:50:06;4.85;;;2.53;;
9160;SDS011;4615;51.340;8.288;2023-10-19T09:52:32;5.20;;;2.50;;
9160;SDS011;4615;51.340;8.288;2023-10-19T09:55:00;5.63;;;2.55;;
9160;SDS011;4615;51.340;8.288;2023-10-19T09:57:32;5.13;;;2.30;;
9160;SDS011;4615;51.340;8.288;2023-10-19T10:00:02;5.57;;;2.50;;
9160;SDS011;4615;51.340;8.288;2023-10-19T10:02:34;4.93;;;2.65;;
9160;SDS011;4615;51.340;8.288;2023-10-19T10:05:00;4.43;;;2.40;;
9160;SDS011;4615;51.340;8.288;2023-10-19T10:07:29;5.32;;;2.55;;
9160;SDS011;4615;51.340;8.288;2023-10-19T10:09:56;4.43;;;2.53;;
9160;SDS011;4615;51.340;8.288;2023-10-19T10:12:22;6.90;;;2.70;;
9160;SDS011;4615;51.340;8.288;2023-10-19T10:14:53;4.80;;;2.40;;
9160;SDS011;4615;51.340;8.288;2023-10-19T10:17:21;4.72;;;2.30;;
9160;SDS011;4615;51.340;8.288;2023-10-19T10:19:48;6.75;;;2.65;;
9160;SDS011;4615;51.340;8.288;2023-10-19T10:22:14;3.22;;;2.45;;
9160;SDS011;4615;51.340;8.288;2023-10-19T10:24:41;4.72;;;2.53;;
9160;SDS011;4615;51.340;8.288;2023-10-19T10:27:07;3.58;;;2.45;;
9160;SDS011;4615;51.340;8.288;2023-10-19T10:29:35;5.05;;;2.60;;
9160;SDS011;4615;51.340;8.288;2023-10-19T10:32:02;4.22;;;2.50;;
9160;SDS011;4615;51.340;8.288;2023-10-19T10:34:42;6.85;;;2.50;;
9160;SDS011;4615;51.340;8.288;2023-10-19T10:37:10;5.13;;;2.20;;
9160;SDS011;4615;51.340;8.288;2023-10-19T10:39:38;4.95;;;2.30;;
9160;SDS011;4615;51.340;8.288;2023-10-19T10:42:06;4.88;;;2.40;;
9160;SDS011;4615;51.340;8.288;2023-10-19T10:44:36;5.63;;;2.33;;
9160;SDS011;4615;51.340;8.288;2023-10-19T10:47:06;5.20;;;2.30;;
9160;SDS011;4615;51.340;8.288;2023-10-19T10:49:35;4.30;;;2.40;;
9160;SDS011;4615;51.340;8.288;2023-10-19T10:52:02;4.50;;;2.13;;
9160;SDS011;4615;51.340;8.288;2023-10-19T10:54:28;3.92;;;2.08;;
9160;SDS011;4615;51.340;8.288;2023-10-19T10:56:54;4.50;;;2.25;;
9160;SDS011;4615;51.340;8.288;2023-10-19T10:59:21;4.82;;;2.20;;
9160;SDS011;4615;51.340;8.288;2023-10-19T11:01:47;6.10;;;2.53;;
9160;SDS011;4615;51.340;8.288;2023-10-19T11:04:15;5.63;;;2.60;;
9160;SDS011;4615;51.340;8.288;2023-10-19T11:06:48;6.78;;;2.17;;
9160;SDS011;4615;51.340;8.288;2023-10-19T11:09:14;4.60;;;2.20;;
9160;SDS011;4615;51.340;8.288;2023-10-19T11:11:43;5.50;;;2.15;;
9160;SDS011;4615;51.340;8.288;2023-10-19T11:14:10;5.38;;;2.22;;
9160;SDS011;4615;51.340;8.288;2023-10-19T11:16:37;4.55;;;2.05;;
9160;SDS011;4615;51.340;8.288;2023-10-19T11:19:04;6.07;;;2.00;;
9160;SDS011;4615;51.340;8.288;2023-10-19T11:21:32;4.50;;;2.20;;
9160;SDS011;4615;51.340;8.288;2023-10-19T11:23:59;5.53;;;2.30;;
9160;SDS011;4615;51.340;8.288;2023-10-19T11:26:25;5.53;;;2.40;;
9160;SDS011;4615;51.340;8.288;2023-10-19T11:28:57;4.07;;;2.20;;
9160;SDS011;4615;51.340;8.288;2023-10-19T11:31:23;4.13;;;2.20;;
9160;SDS011;4615;51.340;8.288;2023-10-19T11:33:50;4.40;;;1.90;;
9160;SDS011;4615;51.340;8.288;2023-10-19T11:36:18;3.75;;;2.08;;
9160;SDS011;4615;51.340;8.288;2023-10-19T11:38:47;4.78;;;2.25;;
9160;SDS011;4615;51.340;8.288;2023-10-19T11:41:14;5.85;;;2.10;;
9160;SDS011;4615;51.340;8.288;2023-10-19T11:43:41;4.55;;;2.22;;
9160;SDS011;4615;51.340;8.288;2023-10-19T11:46:08;4.78;;;2.25;;
9160;SDS011;4615;51.340;8.288;2023-10-19T11:48:35;6.93;;;3.00;;
9160;SDS011;4615;51.340;8.288;2023-10-19T11:51:03;7.50;;;2.42;;
9160;SDS011;4615;51.340;8.288;2023-10-19T11:53:30;5.47;;;2.30;;
9160;SDS011;4615;51.340;8.288;2023-10-19T11:55:59;6.13;;;2.25;;
9160;SDS011;4615;51.340;8.288;2023-10-19T11:58:26;3.65;;;2.13;;
9160;SDS011;4615;51.340;8.288;2023-10-19T12:00:53;5.63;;;2.50;;
9160;SDS011;4615;51.340;8.288;2023-10-19T12:03:20;5.75;;;2.38;;
9160;SDS011;4615;51.340;8.288;2023-10-19T12:05:46;5.75;;;2.25;;
9160;SDS011;4615;51.340;8.288;2023-10-19T12:08:13;5.43;;;2.13;;
9160;SDS011;4615;51.340;8.288;2023-10-19T12:10:40;6.95;;;2.40;;
9160;SDS011;4615;51.340;8.288;2023-10-19T12:13:07;6.57;;;2.10;;
9160;SDS011;4615;51.340;8.288;2023-10-19T12:15:34;4.82;;;2.15;;
9160;SDS011;4615;51.340;8.288;2023-10-19T12:18:01;5.80;;;2.08;;
9160;SDS011;4615;51.340;8.288;2023-10-19T12:20:28;3.95;;;1.85;;
9160;SDS011;4615;51.340;8.288;2023-10-19T12:22:56;3.58;;;1.77;;
9160;SDS011;4615;51.340;8.288;2023-10-19T12:25:22;5.53;;;2.23;;
9160;SDS011;4615;51.340;8.288;2023-10-19T12:27:53;6.13;;;1.90;;
9160;SDS011;4615;51.340;8.288;2023-10-19T12:30:21;4.28;;;2.03;;
9160;SDS011;4615;51.340;8.288;2023-10-19T12:32:51;4.90;;;1.90;;
9160;SDS011;4615;51.340;8.288;2023-10-19T12:35:17;6.18;;;2.25;;
9160;SDS011;4615;51.340;8.288;2023-10-19T12:37:45;5.35;;;2.05;;
9160;SDS011;4615;51.340;8.288;2023-10-19T12:40:16;4.95;;;2.05;;
9160;SDS011;4615;51.340;8.288;2023-10-19T12:42:52;5.60;;;2.10;;
9160;SDS011;4615;51.340;8.288;2023-10-19T12:45:19;6.03;;;2.10;;
9160;SDS011;4615;51.340;8.288;2023-10-19T12:47:47;5.38;;;2.20;;
9160;SDS011;4615;51.340;8.288;2023-10-19T12:50:13;4.88;;;2.20;;
9160;SDS011;4615;51.340;8.288;2023-10-19T12:52:40;5.50;;;2.10;;
9160;SDS011;4615;51.340;8.288;2023-10-19T12:55:07;5.40;;;2.25;;
9160;SDS011;4615;51.340;8.288;2023-10-19T12:57:34;6.28;;;2.10;;
9160;SDS011;4615;51.340;8.288;2023-10-19T13:00:01;4.60;;;2.03;;
9160;SDS011;4615;51.340;8.288;2023-10-19T13:02:49;5.90;;;2.10;;
9160;SDS011;4615;51.340;8.288;2023-10-19T13:05:15;4.40;;;2.33;;
9160;SDS011;4615;51.340;8.288;2023-10-19T13:07:43;4.45;;;2.13;;
9160;SDS011;4615;51.340;8.288;2023-10-19T13:10:09;6.60;;;2.40;;
9160;SDS011;4615;51.340;8.288;2023-10-19T13:12:36;4.55;;;2.20;;
9160;SDS011;4615;51.340;8.288;2023-10-19T13:15:03;5.00;;;2.10;;
9160;SDS011;4615;51.340;8.288;2023-10-19T13:17:29;5.50;;;2.05;;
9160;SDS011;4615;51.340;8.288;2023-10-19T13:19:57;5.85;;;2.22;;
9160;SDS011;4615;51.340;8.288;2023-10-19T13:22:26;4.05;;;2.22;;
9160;SDS011;4615;51.340;8.288;2023-10-19T13:24:52;4.95;;;2.65;;
9160;SDS011;4615;51.340;8.288;2023-10-19T13:27:21;4.93;;;2.50;;
9160;SDS011;4615;51.340;8.288;2023-10-19T13:29:47;6.60;;;2.70;;
9160;SDS011;4615;51.340;8.288;2023-10-19T13:32:13;6.18;;;2.40;;
9160;SDS011;4615;51.340;8.288;2023-10-19T13:34:40;5.68;;;2.30;;
9160;SDS011;4615;51.340;8.288;2023-10-19T13:37:08;5.45;;;2.58;;
9160;SDS011;4615;51.340;8.288;2023-10-19T13:39:36;5.97;;;2.45;;
9160;SDS011;4615;51.340;8.288;2023-10-19T13:42:04;5.55;;;2.47;;
9160;SDS011;4615;51.340;8.288;2023-10-19T13:44:31;5.20;;;2.53;;
9160;SDS011;4615;51.340;8.288;2023-10-19T13:46:57;6.22;;;2.60;;
9160;SDS011;4615;51.340;8.288;2023-10-19T13:49:24;5.15;;;2.35;;
9160;SDS011;4615;51.340;8.288;2023-10-19T13:51:51;7.40;;;2.70;;
9160;SDS011;4615;51.340;8.288;2023-10-19T13:54:19;6.28;;;2.35;;
9160;SDS011;4615;51.340;8.288;2023-10-19T13:56:46;7.38;;;2.65;;
9160;SDS011;4615;51.340;8.288;2023-10-19T13:59:12;6.38;;;2.45;;
9160;SDS011;4615;51.340;8.288;2023-10-19T14:01:40;4.80;;;2.55;;
9160;SDS011;4615;51.340;8.288;2023-10-19T14:04:07;5.25;;;2.55;;
9160;SDS011;4615;51.340;8.288;2023-10-19T14:06:33;5.35;;;2.25;;
9160;SDS011;4615;51.340;8.288;2023-10-19T14:09:00;5.23;;;2.33;;
9160;SDS011;4615;51.340;8.288;2023-10-19T14:11:28;5.33;;;2.40;;
9160;SDS011;4615;51.340;8.288;2023-10-19T14:13:55;4.57;;;2.53;;
9160;SDS011;4615;51.340;8.288;2023-10-19T14:16:21;5.70;;;2.28;;
9160;SDS011;4615;51.340;8.288;2023-10-19T14:18:48;5.43;;;2.50;;
9160;SDS011;4615;51.340;8.288;2023-10-19T14:21:14;4.75;;;2.47;;
9160;SDS011;4615;51.340;8.288;2023-10-19T14:23:41;4.15;;;2.40;;
9160;SDS011;4615;51.340;8.288;2023-10-19T14:26:08;5.38;;;2.63;;
9160;SDS011;4615;51.340;8.288;2023-10-19T14:28:36;6.35;;;2.83;;
9160;SDS011;4615;51.340;8.288;2023-10-19T14:31:03;8.63;;;3.40;;
9160;SDS011;4615;51.340;8.288;2023-10-19T14:33:32;7.40;;;3.00;;
9160;SDS011;4615;51.340;8.288;2023-10-19T14:36:00;5.68;;;2.95;;
9160;SDS011;4615;51.340;8.288;2023-10-19T14:38:28;4.22;;;2.70;;
9160;SDS011;4615;51.340;8.288;2023-10-19T14:40:54;5.55;;;2.90;;
9160;SDS011;4615;51.340;8.288;2023-10-19T14:43:20;6.40;;;3.08;;
9160;SDS011;4615;51.340;8.288;2023-10-19T14:45:48;6.03;;;3.35;;
9160;SDS011;4615;51.340;8.288;2023-10-19T14:48:15;6.50;;;2.90;;
9160;SDS011;4615;51.340;8.288;2023-10-19T14:50:44;4.60;;;2.90;;
9160;SDS011;4615;51.340;8.288;2023-10-19T14:53:10;4.50;;;3.00;;
9160;SDS011;4615;51.340;8.288;2023-10-19T14:55:37;8.02;;;3.33;;
9160;SDS011;4615;51.340;8.288;2023-10-19T14:58:03;6.22;;;3.20;;
9160;SDS011;4615;51.340;8.288;2023-10-19T15:00:31;6.35;;;3.25;;
9160;SDS011;4615;51.340;8.288;2023-10-19T15:03:00;6.03;;;3.30;;
9160;SDS011;4615;51.340;8.288;2023-10-19T15:05:32;6.40;;;3.13;;
9160;SDS011;4615;51.340;8.288;2023-10-19T15:08:00;6.35;;;3.35;;
9160;SDS011;4615;51.340;8.288;2023-10-19T15:10:27;6.28;;;3.30;;
9160;SDS011;4615;51.340;8.288;2023-10-19T15:12:54;7.35;;;3.47;;
9160;SDS011;4615;51.340;8.288;2023-10-19T15:15:21;6.93;;;3.60;;
9160;SDS011;4615;51.340;8.288;2023-10-19T15:17:48;6.22;;;3.30;;
9160;SDS011;4615;51.340;8.288;2023-10-19T15:20:16;6.13;;;3.20;;